Time;durP1;ratioP1;P1;durP2;ratioP2;P2;SDS_P1;SDS_P2;PMS_P1;PMS_P2;Temp;Humidity;BMP_temperature;BMP_pressure;BME280_temperature;BME280_humidity;BME280_pressure;Samples;Min_cycle;Max_cycle;Signal;HPM_P1;HPM_P2
2024/04/18 00:01:00;;;;;;;16.10;10.68;;;;;;;8.22;100.00;101230.75;4709452;30;20121;-92
2024/04/18 00:03:25;;;;;;;14.13;10.30;;;;;;;8.17;100.00;101238.16;4707714;30;20053;-92
2024/04/18 00:05:51;;;;;;;12.48;10.50;;;;;;;8.09;100.00;101237.84;4707315;30;20044;-93
2024/04/18 00:08:19;;;;;;;12.07;10.02;;;;;;;8.03;100.00;101239.94;4728473;30;20037;-93
2024/04/18 00:10:45;;;;;;;13.75;10.25;;;;;;;7.97;100.00;101253.53;4719208;30;20059;-92
2024/04/18 00:13:31;;;;;;;21.00;15.95;;;;;;;7.92;100.00;101250.38;4718858;30;20506;-93
2024/04/18 00:16:02;;;;;;;21.63;15.02;;;;;;;7.84;100.00;101237.75;4704189;30;20045;-92
2024/04/18 00:18:34;;;;;;;16.08;12.02;;;;;;;7.79;100.00;101250.38;4713139;30;20401;-92
2024/04/18 00:21:20;;;;;;;17.17;10.40;;;;;;;7.67;100.00;101252.94;4708754;30;20076;-93
2024/04/18 00:23:54;;;;;;;16.63;11.73;;;;;;;7.61;100.00;101256.00;4718420;30;20127;-92
2024/04/18 00:26:40;;;;;;;15.55;10.75;;;;;;;7.54;100.00;101258.19;4719559;30;20095;-92
2024/04/18 00:29:06;;;;;;;18.85;13.65;;;;;;;7.58;100.00;101258.81;4718128;30;20040;-92
2024/04/18 00:31:34;;;;;;;20.75;11.23;;;;;;;7.53;100.00;101260.91;4704781;30;20130;-93
2024/04/18 00:34:00;;;;;;;11.82;9.75;;;;;;;7.46;100.00;101252.59;4713562;30;20056;-93
2024/04/18 00:36:29;;;;;;;12.85;9.52;;;;;;;7.51;100.00;101255.75;4700795;30;20037;-92
2024/04/18 00:39:03;;;;;;;13.10;9.48;;;;;;;7.48;100.00;101240.19;4712452;30;20591;-92
2024/04/18 00:41:35;;;;;;;14.85;8.95;;;;;;;7.56;100.00;101264.16;4718862;30;20495;-92
2024/04/18 00:44:07;;;;;;;12.73;9.35;;;;;;;7.50;100.00;101269.03;4718196;30;20072;-93
2024/04/18 00:46:33;;;;;;;15.57;10.20;;;;;;;7.59;100.00;101280.69;4716644;30;20399;-93
2024/04/18 00:48:59;;;;;;;9.95;8.23;;;;;;;7.61;100.00;101291.97;4727230;30;20041;-93
2024/04/18 00:51:25;;;;;;;12.23;7.97;;;;;;;7.57;100.00;101278.16;4703024;30;20051;-93
2024/04/18 00:53:54;;;;;;;12.80;8.60;;;;;;;7.64;100.00;101279.47;4716925;30;20083;-93
2024/04/18 00:56:26;;;;;;;13.32;8.57;;;;;;;7.74;100.00;101287.53;4715923;30;20075;-93
2024/04/18 00:59:15;;;;;;;12.35;8.45;;;;;;;7.80;100.00;101284.50;4718174;30;20066;-93
2024/04/18 01:01:43;;;;;;;11.50;8.90;;;;;;;7.86;100.00;101287.66;4703950;30;20041;-93
2024/04/18 01:04:09;;;;;;;11.00;8.70;;;;;;;7.87;100.00;101292.81;4721353;30;20052;-93
2024/04/18 01:06:42;;;;;;;13.15;8.90;;;;;;;7.90;100.00;101303.13;4714114;30;20111;-93
2024/04/18 01:09:16;;;;;;;10.93;8.40;;;;;;;7.96;100.00;101295.78;4725034;30;20047;-92
2024/04/18 01:12:13;;;;;;;10.15;7.70;;;;;;;7.92;100.00;101285.44;4715776;30;20044;-93
2024/04/18 01:14:41;;;;;;;12.43;8.50;;;;;;;8.00;100.00;101284.91;4730281;30;20033;-92
2024/04/18 01:17:06;;;;;;;9.07;8.07;;;;;;;8.00;100.00;101274.38;4720052;30;20064;-92
2024/04/18 01:19:38;;;;;;;10.88;8.18;;;;;;;8.04;100.00;101275.84;4730935;30;20104;-93
2024/04/18 01:22:10;;;;;;;10.85;8.00;;;;;;;8.06;100.00;101260.78;4701375;30;20703;-93
2024/04/18 01:25:03;;;;;;;10.38;7.72;;;;;;;8.10;100.00;101264.06;4708035;30;20136;-92
2024/04/18 01:27:29;;;;;;;11.00;8.38;;;;;;;8.16;100.00;101276.78;4717996;30;20521;-93
2024/04/18 01:30:00;;;;;;;14.20;8.00;;;;;;;8.21;100.00;101279.09;4705919;30;20048;-93
2024/04/18 01:32:41;;;;;;;;;;;;;;;8.15;100.00;101284.81;4725357;30;20124;-93
2024/04/18 01:35:07;;;;;;;12.07;7.60;;;;;;;8.13;100.00;101284.06;4706291;30;20000;-93
2024/04/18 01:37:45;;;;;;;9.02;7.35;;;;;;;8.16;100.00;101276.78;4719242;30;20049;-92
2024/04/18 01:40:15;;;;;;;10.35;7.18;;;;;;;8.27;100.00;101277.81;4727652;30;20063;-93
2024/04/18 01:42:41;;;;;;;10.68;7.65;;;;;;;8.24;100.00;101264.88;4722158;30;20060;-93
2024/04/18 01:45:30;;;;;;;9.02;6.70;;;;;;;8.28;100.00;101256.63;4710361;30;20093;-93
2024/04/18 01:48:23;;;;;;;10.65;7.10;;;;;;;8.25;100.00;101251.59;4732305;30;20052;-93
2024/04/18 01:51:21;;;;;;;9.10;6.80;;;;;;;8.31;100.00;101266.94;4733777;30;20040;-93
2024/04/18 01:53:47;;;;;;;9.73;7.32;;;;;;;8.34;100.00;101267.69;4702370;30;20037;-93
2024/04/18 01:56:19;;;;;;;8.38;6.70;;;;;;;8.29;100.00;101258.34;4704132;30;20525;-93
2024/04/18 01:58:45;;;;;;;10.18;7.85;;;;;;;8.15;100.00;101247.94;4724451;30;20105;-92
2024/04/18 02:01:11;;;;;;;9.60;7.93;;;;;;;8.05;100.00;101242.47;4723916;30;20049;-93
2024/04/18 02:03:37;;;;;;;9.70;7.45;;;;;;;8.02;100.00;101240.91;4728861;30;20048;-93
2024/04/18 02:06:12;;;;;;;9.32;7.35;;;;;;;8.10;100.00;101239.50;4709540;30;20041;-93
2024/04/18 02:08:52;;;;;;;9.15;7.80;;;;;;;8.07;100.00;101241.41;4722338;30;20425;-93
2024/04/18 02:11:40;;;;;;;10.68;7.45;;;;;;;8.14;100.00;101254.97;4720346;30;20040;-93
2024/04/18 02:14:08;;;;;;;9.43;7.68;;;;;;;8.06;100.00;101266.06;4706440;30;20128;-93
2024/04/18 02:16:34;;;;;;;10.43;7.30;;;;;;;8.06;100.00;101265.22;4718661;30;20049;-93
2024/04/18 02:19:19;;;;;;;9.13;7.72;;;;;;;8.06;100.00;101255.53;4723620;30;20522;-93
2024/04/18 02:21:56;;;;;;;9.88;7.70;;;;;;;8.10;100.00;101257.94;4745012;30;20079;-93
2024/04/18 02:24:57;;;;;;;8.95;7.20;;;;;;;8.12;100.00;101251.59;4717509;30;20071;-93
2024/04/18 02:27:26;;;;;;;8.52;6.88;;;;;;;8.10;100.00;101250.91;4728673;30;20079;-93
2024/04/18 02:29:52;;;;;;;8.02;7.18;;;;;;;8.14;100.00;101259.41;4699852;30;20126;-93
2024/04/18 02:32:36;;;;;;;12.77;7.32;;;;;;;8.16;100.00;101265.41;4712610;30;20487;-93
2024/04/18 02:35:02;;;;;;;9.13;6.95;;;;;;;8.10;100.00;101266.69;4717077;30;20037;-93
2024/04/18 02:37:28;;;;;;;10.10;7.90;;;;;;;8.13;100.00;101268.25;4733469;30;20040;-93
2024/04/18 02:39:55;;;;;;;10.50;7.28;;;;;;;8.14;100.00;101270.78;4707185;30;20123;-93
2024/04/18 02:42:24;;;;;;;7.93;6.65;;;;;;;8.17;100.00;101269.75;4722560;30;20052;-92
2024/04/18 02:44:59;;;;;;;10.15;7.28;;;;;;;8.18;100.00;101281.94;4718151;30;20041;-93
2024/04/18 02:47:26;;;;;;;10.60;7.25;;;;;;;8.13;100.00;101277.00;4719380;30;20040;-93
2024/04/18 02:50:15;;;;;;;8.77;6.30;;;;;;;8.15;100.00;101280.38;4720492;30;20584;-93
2024/04/18 02:52:41;;;;;;;10.45;7.40;;;;;;;8.15;100.00;101295.34;4692401;30;20044;-93
2024/04/18 02:55:16;;;;;;;10.20;7.40;;;;;;;8.12;100.00;101293.75;4708502;30;20039;-92
2024/04/18 02:57:53;;;;;;;9.23;6.88;;;;;;;8.13;100.00;101299.84;4719392;30;20230;-93
2024/04/18 03:00:19;;;;;;;10.10;7.22;;;;;;;8.14;100.00;101285.72;4705707;30;20431;-92
2024/04/18 03:03:05;;;;;;;8.07;6.50;;;;;;;8.09;100.00;101283.41;4731317;30;20052;-93
2024/04/18 03:05:31;;;;;;;7.30;5.95;;;;;;;8.14;100.00;101291.00;4701430;30;20507;-92
2024/04/18 03:08:01;;;;;;;7.25;6.10;;;;;;;8.17;100.00;101289.00;4718921;30;20044;-93
2024/04/18 03:10:52;;;;;;;7.22;5.80;;;;;;;8.15;100.00;101288.28;4708408;30;20044;-93
2024/04/18 03:13:47;;;;;;;6.80;5.78;;;;;;;8.17;100.00;101285.53;4723231;30;20601;-92
2024/04/18 03:16:28;;;;;;;6.50;5.85;;;;;;;8.20;100.00;101287.97;4719223;30;20052;-92
2024/04/18 03:19:14;;;;;;;7.00;5.88;;;;;;;8.21;100.00;101289.63;4720099;30;20048;-93
2024/04/18 03:21:50;;;;;;;6.88;5.78;;;;;;;8.18;100.00;101271.41;4700076;30;20056;-92
2024/04/18 03:24:18;;;;;;;6.72;5.90;;;;;;;8.22;100.00;101285.22;4703874;30;20041;-93
2024/04/18 03:26:45;;;;;;;9.00;6.03;;;;;;;8.22;100.00;101298.38;4703346;30;20037;-92
2024/04/18 03:29:12;;;;;;;6.15;5.55;;;;;;;8.19;100.00;101281.00;4702734;30;20088;-92
2024/04/18 03:31:55;;;;;;;7.47;6.05;;;;;;;8.17;100.00;101277.66;4708145;30;20053;-92
2024/04/18 03:34:41;;;;;;;6.00;5.05;;;;;;;8.17;100.00;101286.38;4715990;30;20033;-92
2024/04/18 03:37:07;;;;;;;6.70;5.75;;;;;;;8.18;100.00;101292.50;4715106;30;20399;-92
2024/04/18 03:39:33;;;;;;;6.65;5.55;;;;;;;8.17;100.00;101291.63;4722150;30;20490;-93
2024/04/18 03:41:58;;;;;;;8.77;5.50;;;;;;;8.18;100.00;101290.72;4716859;30;20052;-93
2024/04/18 03:44:44;;;;;;;7.53;5.32;;;;;;;8.20;100.00;101311.66;4717245;30;20102;-92
2024/04/18 03:47:10;;;;;;;6.82;5.18;;;;;;;8.18;100.00;101308.28;4716737;30;20063;-92
2024/04/18 03:49:36;;;;;;;6.22;4.90;;;;;;;8.21;100.00;101302.81;4704277;30;20621;-92
2024/04/18 03:52:02;;;;;;;6.53;5.13;;;;;;;8.18;100.00;101306.50;4702307;30;20487;-92
2024/04/18 03:54:34;;;;;;;6.03;4.70;;;;;;;8.15;100.00;101305.88;4733706;30;20032;-92
2024/04/18 03:57:01;;;;;;;6.88;5.03;;;;;;;8.15;100.00;101298.81;4703311;30;20100;-92
2024/04/18 03:59:31;;;;;;;5.78;4.95;;;;;;;8.12;100.00;101303.44;4708092;30;20064;-92
2024/04/18 04:01:57;;;;;;;7.65;5.55;;;;;;;8.14;100.00;101304.16;4719540;30;20069;-92
2024/04/18 04:04:23;;;;;;;6.20;4.72;;;;;;;8.09;100.00;101291.31;4709740;30;20060;-92
2024/04/18 04:06:48;;;;;;;7.63;5.13;;;;;;;8.10;100.00;101300.94;4719442;30;20074;-92
2024/04/18 04:09:14;;;;;;;8.93;5.55;;;;;;;8.12;100.00;101308.72;4703744;30;20044;-93
2024/04/18 04:11:40;;;;;;;9.40;5.43;;;;;;;8.09;100.00;101290.50;4718879;30;20048;-92
2024/04/18 04:14:09;;;;;;;7.57;5.03;;;;;;;8.14;100.00;101291.84;4704606;30;20040;-93
2024/04/18 04:16:51;;;;;;;7.00;4.85;;;;;;;8.08;100.00;101287.00;4705602;30;20041;-93
2024/04/18 04:19:18;;;;;;;12.75;4.93;;;;;;;8.14;100.00;101286.59;4717960;30;20047;-92
2024/04/18 04:21:46;;;;;;;5.80;5.20;;;;;;;8.11;100.00;101284.16;4706915;30;20041;-92
2024/04/18 04:24:12;;;;;;;6.28;5.05;;;;;;;8.13;100.00;101286.69;4708299;30;20041;-93
2024/04/18 04:26:51;;;;;;;7.65;5.45;;;;;;;8.16;100.00;101299.66;4715207;30;20099;-92
2024/04/18 04:29:17;;;;;;;6.47;5.18;;;;;;;8.14;100.00;101302.38;4702587;30;20072;-93
2024/04/18 04:31:43;;;;;;;7.30;5.40;;;;;;;8.17;100.00;101299.53;4714143;30;20095;-92
2024/04/18 04:34:12;;;;;;;9.57;6.25;;;;;;;8.19;100.00;101294.16;4710853;30;20037;-92
2024/04/18 04:36:38;;;;;;;8.25;5.28;;;;;;;8.20;100.00;101295.88;4700225;30;20040;-93
2024/04/18 04:39:05;;;;;;;9.32;5.40;;;;;;;8.22;100.00;101306.28;4717337;30;20064;-93
2024/04/18 04:41:39;;;;;;;6.43;5.03;;;;;;;8.21;100.00;101302.81;4727356;30;20559;-92
2024/04/18 04:44:05;;;;;;;8.63;4.95;;;;;;;8.22;100.00;101314.19;4696155;30;20088;-92
2024/04/18 04:46:47;;;;;;;8.52;5.25;;;;;;;8.22;100.00;101314.19;4703454;30;20048;-92
2024/04/18 04:49:15;;;;;;;8.80;4.55;;;;;;;8.22;100.00;101308.94;4701296;30;20103;-93
2024/04/18 04:52:02;;;;;;;7.68;4.88;;;;;;;8.22;100.00;101309.75;4705789;30;20049;-92
2024/04/18 04:54:42;;;;;;;8.05;4.40;;;;;;;8.19;100.00;101305.53;4718075;30;20040;-92
2024/04/18 04:57:08;;;;;;;7.82;4.28;;;;;;;8.23;100.00;101318.50;4704910;30;20049;-92
2024/04/18 04:59:35;;;;;;;7.20;3.85;;;;;;;8.24;100.00;101328.94;4700423;30;20048;-92
2024/04/18 05:02:01;;;;;;;4.95;3.88;;;;;;;8.21;100.00;101320.38;4713305;30;20040;-92
2024/04/18 05:04:45;;;;;;;9.43;5.10;;;;;;;8.24;100.00;101333.34;4725145;30;20135;-92
2024/04/18 05:07:32;;;;;;;3.92;3.38;;;;;;;8.19;100.00;101320.50;4700008;30;20068;-92
2024/04/18 05:10:18;;;;;;;;;;;;;;;8.14;100.00;101312.91;4733311;30;20614;-93
2024/04/18 05:12:44;;;;;;;7.55;3.97;;;;;;;8.14;100.00;101318.19;4722043;30;19992;-92
2024/04/18 05:15:29;;;;;;;7.25;4.05;;;;;;;8.09;100.00;101309.75;4718967;30;20041;-92
2024/04/18 05:17:58;;;;;;;9.10;3.80;;;;;;;8.05;100.00;101311.78;4725881;30;20047;-92
2024/04/18 05:20:24;;;;;;;6.90;2.95;;;;;;;7.98;100.00;101321.03;4711341;30;20040;-92
2024/04/18 05:22:49;;;;;;;7.38;2.50;;;;;;;7.88;100.00;101325.25;4716289;30;20110;-91
2024/04/18 05:25:15;;;;;;;9.43;1.80;;;;;;;7.89;100.00;101342.72;4705779;30;20503;-93
2024/04/18 05:27:55;;;;;;;3.85;1.50;;;;;;;7.86;100.00;101353.47;4707631;30;20046;-91
2024/04/18 05:33:23;;;;;;;5.25;1.67;;;;;;;7.84;100.00;101344.81;4714634;30;20045;-92
2024/04/18 05:35:50;;;;;;;5.68;1.77;;;;;;;7.84;100.00;101352.72;4709192;30;20044;-91
2024/04/18 05:38:15;;;;;;;5.45;1.85;;;;;;;7.79;100.00;101355.66;4704428;30;20055;-90
2024/04/18 05:40:41;;;;;;;3.35;1.67;;;;;;;7.75;100.00;101370.84;4714030;30;20449;-91
2024/04/18 05:43:07;;;;;;;7.22;1.92;;;;;;;7.74;100.00;101360.41;4711565;30;20411;-91
2024/04/18 05:45:50;;;;;;;6.30;1.80;;;;;;;7.70;100.00;101365.03;4702383;30;20102;-92
2024/04/18 05:48:18;;;;;;;6.32;1.90;;;;;;;7.69;100.00;101358.09;4714604;30;20048;-91
2024/04/18 05:50:43;;;;;;;4.25;2.03;;;;;;;7.65;100.00;101349.56;4704406;30;20124;-92
2024/04/18 05:53:37;;;;;;;2.58;1.65;;;;;;;7.69;100.00;101351.03;4710803;30;20076;-91
2024/04/18 05:56:03;;;;;;;3.95;1.55;;;;;;;7.65;100.00;101346.91;4693477;30;20076;-91
2024/04/18 05:58:29;;;;;;;4.45;1.60;;;;;;;7.73;100.00;101353.44;4713002;30;20124;-91
2024/04/18 06:00:56;;;;;;;11.25;1.88;;;;;;;7.70;100.00;101349.25;4700298;30;20253;-91
2024/04/18 06:03:22;;;;;;;3.90;1.67;;;;;;;7.73;100.00;101343.78;4714757;30;20048;-91
2024/04/18 06:05:48;;;;;;;2.50;1.45;;;;;;;7.74;100.00;101344.63;4712865;30;20049;-92
2024/04/18 06:08:14;;;;;;;4.22;1.67;;;;;;;7.76;100.00;101347.97;4725544;30;20048;-91
2024/04/18 06:10:43;;;;;;;6.07;1.30;;;;;;;7.80;100.00;101342.41;4698557;30;20045;-91
2024/04/18 06:13:22;;;;;;;4.68;1.33;;;;;;;7.79;100.00;101339.88;4704872;30;20037;-90
2024/04/18 06:15:48;;;;;;;4.03;1.35;;;;;;;7.80;100.00;101338.94;4720341;30;20048;-91
2024/04/18 06:18:14;;;;;;;4.43;1.38;;;;;;;7.78;100.00;101336.41;4696580;30;20052;-91
2024/04/18 06:20:47;;;;;;;2.08;1.15;;;;;;;7.82;100.00;101344.91;4702594;30;20054;-92
2024/04/18 06:23:14;;;;;;;1.98;1.23;;;;;;;7.75;100.00;101339.25;4699607;30;20182;-92
2024/04/18 06:25:41;;;;;;;2.03;0.98;;;;;;;7.75;100.00;101351.56;4713687;30;20487;-91
2024/04/18 06:28:12;;;;;;;6.05;1.80;;;;;;;7.80;100.00;101352.91;4712309;30;20052;-91
2024/04/18 06:30:38;;;;;;;4.07;1.20;;;;;;;7.76;100.00;101361.13;4698148;30;20032;-91
2024/04/18 06:33:09;;;;;;;4.70;1.17;;;;;;;7.80;100.00;101354.72;4715376;30;20074;-90
2024/04/18 06:35:35;;;;;;;2.28;1.05;;;;;;;7.80;100.00;101357.38;4715010;30;20103;-91
2024/04/18 06:38:02;;;;;;;1.02;0.90;;;;;;;7.88;100.00;101356.84;4711797;30;20044;-90
2024/04/18 06:40:27;;;;;;;4.13;1.48;;;;;;;7.93;100.00;101352.94;4723451;30;20074;-90
2024/04/18 06:42:55;;;;;;;2.95;1.25;;;;;;;8.05;100.00;101358.31;4718396;30;20123;-91
2024/04/18 06:45:24;;;;;;;4.03;1.42;;;;;;;8.10;100.00;101363.28;4699882;30;20040;-91
2024/04/18 06:47:50;;;;;;;1.75;0.93;;;;;;;8.15;100.00;101366.44;4713592;30;20044;-91
2024/04/18 06:50:17;;;;;;;3.83;1.30;;;;;;;8.20;100.00;101369.59;4732228;30;20040;-96
2024/04/18 06:52:42;;;;;;;2.90;1.00;;;;;;;8.22;100.00;101367.69;4713101;30;20040;-92
2024/04/18 06:55:08;;;;;;;3.03;1.00;;;;;;;8.25;100.00;101361.38;4719374;30;20526;-90
2024/04/18 06:57:40;;;;;;;5.75;1.30;;;;;;;8.29;100.00;101362.84;4696074;30;20075;-91
2024/04/18 07:00:08;;;;;;;2.72;0.98;;;;;;;8.29;100.00;101362.84;4715159;30;20045;-91
2024/04/18 07:02:33;;;;;;;5.22;1.20;;;;;;;8.32;100.00;101368.75;4703479;30;20535;-91
2024/04/18 07:05:18;;;;;;;1.30;0.70;;;;;;;8.37;100.00;101368.44;4708188;30;20519;-92
2024/04/18 07:07:47;;;;;;;3.78;0.95;;;;;;;8.49;100.00;101353.53;4713131;30;20196;-91
2024/04/18 07:10:32;;;;;;;4.50;0.82;;;;;;;8.75;100.00;101355.31;4700778;30;20448;-91
2024/04/18 07:13:18;;;;;;;8.35;1.40;;;;;;;8.84;100.00;101353.81;4717235;30;20324;-91
2024/04/18 07:15:57;;;;;;;2.30;1.00;;;;;;;8.89;100.00;101368.34;4713026;30;20332;-91
2024/04/18 07:18:42;;;;;;;4.20;0.88;;;;;;;8.84;100.00;101370.47;4713394;30;20045;-90
2024/04/18 07:21:08;;;;;;;4.40;1.00;;;;;;;8.72;100.00;101373.97;4715558;30;20052;-91
2024/04/18 07:23:37;;;;;;;2.03;1.05;;;;;;;8.71;100.00;101382.84;4736630;30;20039;-90
2024/04/18 07:26:04;;;;;;;6.40;0.70;;;;;;;8.71;100.00;101380.22;4733872;29;20048;-92
2024/04/18 07:28:29;;;;;;;3.55;0.77;;;;;;;8.69;100.00;101369.78;4718272;30;20044;-91
2024/04/18 07:30:55;;;;;;;4.10;1.00;;;;;;;8.72;100.00;101374.84;4699749;30;20048;-91
2024/04/18 07:33:21;;;;;;;2.15;1.13;;;;;;;8.80;100.00;101377.78;4712773;30;20041;-91
2024/04/18 07:35:56;;;;;;;2.10;0.98;;;;;;;8.89;100.00;101364.88;4726729;30;20047;-91
2024/04/18 07:38:27;;;;;;;5.28;0.93;;;;;;;8.90;100.00;101372.66;4737718;30;20041;-91
2024/04/18 07:40:53;;;;;;;1.75;0.80;;;;;;;8.96;100.00;101371.41;4715132;30;20040;-91
2024/04/18 07:43:19;;;;;;;2.80;0.88;;;;;;;8.99;100.00;101368.53;4715306;30;20028;-91
2024/04/18 07:45:45;;;;;;;4.15;0.70;;;;;;;8.97;100.00;101365.16;4710504;30;20514;-91
2024/04/18 07:48:11;;;;;;;3.90;0.75;;;;;;;8.99;100.00;101365.03;4708506;30;20040;-91
2024/04/18 07:50:36;;;;;;;4.95;0.93;;;;;;;9.02;100.00;101367.47;4712543;30;20060;-91
2024/04/18 07:53:02;;;;;;;5.18;0.70;;;;;;;8.98;100.00;101363.38;4711417;30;20491;-91
2024/04/18 07:55:28;;;;;;;4.72;1.40;;;;;;;9.03;100.00;101366.53;4710723;30;20094;-92
2024/04/18 07:57:54;;;;;;;2.25;0.98;;;;;;;9.03;100.00;101366.53;4701859;30;20044;-91
2024/04/18 08:00:19;;;;;;;7.72;1.40;;;;;;;9.09;100.00;101365.22;4706856;30;20458;-90
2024/04/18 08:02:45;;;;;;;2.33;0.93;;;;;;;9.11;100.00;101369.44;4689480;30;20045;-91
2024/04/18 08:05:11;;;;;;;5.07;0.57;;;;;;;9.14;100.00;101368.38;4731061;30;20056;-92
2024/04/18 08:07:37;;;;;;;1.48;0.52;;;;;;;9.13;100.00;101367.53;4714535;30;20507;-91
2024/04/18 08:10:03;;;;;;;5.10;1.17;;;;;;;9.15;100.00;101370.06;4685156;30;20036;-90
2024/04/18 08:12:28;;;;;;;4.22;0.65;;;;;;;9.21;100.00;101368.75;4697240;30;20674;-91
2024/04/18 08:14:54;;;;;;;5.18;0.50;;;;;;;9.23;100.00;101366.84;4712562;30;20075;-91
2024/04/18 08:17:20;;;;;;;6.88;0.57;;;;;;;9.26;100.00;101370.13;4709607;30;20052;-91
2024/04/18 08:19:47;;;;;;;6.00;0.85;;;;;;;9.31;100.00;101364.50;4700382;30;20084;-92
2024/04/18 08:22:12;;;;;;;5.43;0.95;;;;;;;9.37;100.00;101355.28;4708403;30;20044;-92
2024/04/18 08:24:38;;;;;;;3.50;0.70;;;;;;;9.51;100.00;101365.66;4723551;30;20340;-91
2024/04/18 08:27:07;;;;;;;6.93;0.80;;;;;;;9.63;100.00;101363.91;4713839;30;20063;-90
2024/04/18 08:29:33;;;;;;;8.35;0.80;;;;;;;9.66;100.00;101366.31;4713426;30;20664;-93
2024/04/18 08:31:59;;;;;;;4.82;0.50;;;;;;;9.71;100.00;101357.19;4700212;30;20059;-92
2024/04/18 08:34:25;;;;;;;6.82;0.95;;;;;;;9.78;100.00;101345.19;4702929;30;20047;-92
2024/04/18 08:36:50;;;;;;;6.10;0.70;;;;;;;9.97;100.00;101344.63;4701470;30;20047;-91
2024/04/18 08:39:16;;;;;;;7.05;0.80;;;;;;;10.11;100.00;101337.47;4705647;30;20052;-91
2024/04/18 08:41:45;;;;;;;5.13;0.70;;;;;;;10.29;100.00;101340.44;4704347;30;20083;-91
2024/04/18 08:44:12;;;;;;;7.65;0.60;;;;;;;10.30;100.00;101329.75;4721086;30;20052;-92
2024/04/18 08:46:39;;;;;;;6.57;0.63;;;;;;;10.33;100.00;101339.28;4721593;30;20053;-91
2024/04/18 08:49:10;;;;;;;8.43;1.20;;;;;;;10.41;100.00;101336.03;4728659;30;20041;-91
2024/04/18 08:51:36;;;;;;;13.23;0.82;;;;;;;10.46;100.00;101339.19;4722470;30;20051;-91
2024/04/18 08:54:05;;;;;;;7.10;0.90;;;;;;;10.58;100.00;101328.56;4704375;30;20025;-91
2024/04/18 08:56:33;;;;;;;8.38;0.90;;;;;;;10.65;100.00;101329.78;4713996;30;20134;-92
2024/04/18 08:58:59;;;;;;;7.63;0.68;;;;;;;10.64;100.00;101325.44;4716896;30;20533;-93
2024/04/18 09:01:25;;;;;;;5.82;0.77;;;;;;;10.60;100.00;101313.44;4717111;30;20044;-91
2024/04/18 09:03:56;;;;;;;5.82;0.90;;;;;;;10.64;100.00;101328.94;4700742;30;20052;-92
2024/04/18 09:06:22;;;;;;;6.30;0.55;;;;;;;10.64;100.00;101310.41;4704343;30;20048;-94
2024/04/18 09:09:00;;;;;;;6.93;0.70;;;;;;;10.75;100.00;101309.56;4729839;30;20498;-92
2024/04/18 09:11:26;;;;;;;7.15;0.93;;;;;;;10.78;100.00;101313.78;4722719;30;20045;-93
2024/04/18 09:13:52;;;;;;;6.25;0.95;;;;;;;10.81;100.00;101297.66;4708199;30;20098;-90
2024/04/18 09:16:18;;;;;;;5.70;0.65;;;;;;;10.82;100.00;101301.13;4722604;30;20055;-92
2024/04/18 09:18:44;;;;;;;5.20;0.82;;;;;;;10.83;100.00;101308.94;4724183;30;20491;-93
2024/04/18 09:21:11;;;;;;;5.13;0.60;;;;;;;10.76;100.00;101308.59;4687770;30;20161;-94
2024/04/18 09:23:39;;;;;;;4.18;1.15;;;;;;;10.78;100.00;101304.00;4720066;30;20106;-92
2024/04/18 09:26:05;;;;;;;4.53;0.70;;;;;;;10.76;100.00;101300.66;4717585;30;20068;-92
2024/04/18 09:28:31;;;;;;;3.13;0.47;;;;;;;10.73;100.00;101300.91;4710913;30;20079;-92
2024/04/18 09:30:58;;;;;;;6.32;1.08;;;;;;;10.79;100.00;101294.28;4717046;30;20065;-92
2024/04/18 09:33:25;;;;;;;6.15;0.93;;;;;;;10.85;100.00;101296.44;4697861;30;20077;-92
2024/04/18 09:35:56;;;;;;;5.65;0.70;;;;;;;10.88;100.00;101301.47;4693091;30;20037;-91
2024/04/18 09:38:22;;;;;;;3.28;0.40;;;;;;;10.83;100.00;101308.94;4716942;30;20164;-94
2024/04/18 09:41:00;;;;;;;3.25;0.63;;;;;;;10.87;100.00;101301.59;4728255;30;20259;-92
2024/04/18 09:43:36;;;;;;;3.05;0.63;;;;;;;11.01;100.00;101297.81;4725433;30;20075;-94
2024/04/18 09:46:09;;;;;;;5.15;0.45;;;;;;;11.25;100.00;101291.47;4716645;30;20043;-93
2024/04/18 09:48:35;;;;;;;3.33;0.47;;;;;;;11.36;100.00;101293.22;4729855;30;20048;-92
2024/04/18 09:51:05;;;;;;;3.40;0.90;;;;;;;11.43;100.00;101285.59;4701824;30;20222;-94
2024/04/18 09:53:32;;;;;;;2.47;0.50;;;;;;;11.34;100.00;101284.56;4700432;30;20082;-93
2024/04/18 09:56:02;;;;;;;3.78;0.55;;;;;;;11.32;100.00;101284.69;4707814;30;20044;-93
2024/04/18 09:58:28;;;;;;;6.35;0.70;;;;;;;11.29;100.00;101279.66;4724738;30;20041;-93
2024/04/18 10:00:57;;;;;;;3.58;0.50;;;;;;;11.31;100.00;101285.66;4702076;30;20113;-89
2024/04/18 10:03:28;;;;;;;4.20;1.00;;;;;;;11.23;100.00;101288.09;4705814;30;20103;-94
2024/04/18 10:05:57;;;;;;;3.88;0.63;;;;;;;11.21;100.00;101287.41;4703007;30;20131;-93
2024/04/18 10:08:29;;;;;;;2.92;0.85;;;;;;;11.22;100.00;101287.28;4714213;30;20047;-92
2024/04/18 10:10:56;;;;;;;2.50;0.50;;;;;;;11.23;100.00;101281.00;4715166;30;20045;-94
2024/04/18 10:13:23;;;;;;;4.90;0.60;;;;;;;11.24;100.00;101288.00;4714511;30;20048;-93
2024/04/18 10:15:48;;;;;;;3.58;0.55;;;;;;;11.24;100.00;101284.50;4720523;30;20032;-94
2024/04/18 10:18:18;;;;;;;5.93;0.65;;;;;;;11.33;100.00;101277.59;4705811;30;20720;-93
2024/04/18 10:20:45;;;;;;;2.28;0.40;;;;;;;11.36;100.00;101286.13;4704197;30;20044;-92
2024/04/18 10:23:14;;;;;;;3.97;0.55;;;;;;;11.46;100.00;101274.75;4706678;30;20128;-93
2024/04/18 10:25:41;;;;;;;4.85;0.68;;;;;;;11.50;100.00;101276.16;4718304;30;20125;-92
2024/04/18 10:28:19;;;;;;;7.32;0.90;;;;;;;11.66;100.00;101275.69;4715595;30;20416;-95
2024/04/18 10:30:45;;;;;;;6.28;0.90;;;;;;;11.69;100.00;101267.50;4695115;30;20144;-93
2024/04/18 10:33:11;;;;;;;7.53;0.98;;;;;;;11.72;100.00;101261.09;4716360;30;20566;-92
2024/04/18 10:35:37;;;;;;;3.40;0.55;;;;;;;11.81;100.00;101256.81;4695634;30;20094;-93
2024/04/18 10:38:03;;;;;;;5.25;0.82;;;;;;;11.74;100.00;101254.69;4729639;30;20110;-93
2024/04/18 10:40:29;;;;;;;3.35;0.68;;;;;;;11.74;100.00;101260.00;4705872;30;20395;-92
2024/04/18 10:43:11;;;;;;;4.38;0.73;;;;;;;11.82;100.00;101256.69;4700465;30;20110;-93
2024/04/18 10:45:37;;;;;;;1.70;0.50;;;;;;;11.77;100.00;101251.78;4716107;30;20462;-93
2024/04/18 10:48:03;;;;;;;4.68;0.52;;;;;;;11.87;100.00;101261.59;4713035;30;20044;-94
2024/04/18 10:50:29;;;;;;;7.47;0.60;;;;;;;11.91;100.00;101258.53;4726920;30;20043;-93
2024/04/18 10:52:55;;;;;;;4.00;0.90;;;;;;;11.90;100.00;101262.16;4714131;30;20593;-92
2024/04/18 10:55:24;;;;;;;7.13;0.93;;;;;;;11.95;100.00;101258.25;4700153;30;20033;-92
2024/04/18 10:57:50;;;;;;;3.58;0.80;;;;;;;11.92;100.00;101254.09;4718106;30;20319;-92
2024/04/18 11:00:16;;;;;;;3.85;1.00;;;;;;;11.88;100.00;101256.16;4713130;30;20345;-92
2024/04/18 11:02:42;;;;;;;6.65;0.93;;;;;;;11.87;100.00;101251.84;4710004;30;20078;-93
2024/04/18 11:05:08;;;;;;;3.53;0.63;;;;;;;11.86;100.00;101254.63;4711128;30;20072;-93
2024/04/18 11:07:55;;;;;;;8.32;0.70;;;;;;;11.92;100.00;101256.72;4715568;30;20036;-94
2024/04/18 11:10:27;;;;;;;3.95;0.73;;;;;;;12.04;100.00;101250.38;4700708;30;20033;-95
2024/04/18 11:12:56;;;;;;;7.93;0.73;;;;;;;12.19;100.00;101246.53;4699611;30;20733;-91
2024/04/18 11:15:23;;;;;;;8.48;1.30;;;;;;;12.33;100.00;101240.00;4717288;30;20349;-94
2024/04/18 11:17:49;;;;;;;3.75;0.70;;;;;;;12.34;100.00;101244.34;4714535;30;20032;-92
2024/04/18 11:20:14;;;;;;;3.72;0.93;;;;;;;12.34;100.00;101237.22;4714253;30;20047;-94
2024/04/18 11:22:40;;;;;;;3.63;0.63;;;;;;;12.35;100.00;101241.56;4714539;30;20045;-95
2024/04/18 11:25:07;;;;;;;3.60;0.75;;;;;;;12.39;100.00;101244.78;4708392;30;20088;-92
2024/04/18 11:27:38;;;;;;;5.90;1.10;;;;;;;12.57;100.00;101236.13;4712761;30;20032;-94
2024/04/18 11:30:06;;;;;;;9.82;1.00;;;;;;;12.60;100.00;101234.06;4695052;30;20045;-96
2024/04/18 11:32:33;;;;;;;6.95;1.25;;;;;;;12.72;100.00;101229.47;4718437;30;20045;-96
2024/04/18 11:34:59;;;;;;;7.20;0.70;;;;;;;12.84;100.00;101237.25;4718348;30;20032;-96
2024/04/18 11:37:25;;;;;;;8.60;0.93;;;;;;;12.82;100.00;101242.72;4703827;30;20048;-93
2024/04/18 11:39:55;;;;;;;7.20;0.98;;;;;;;12.85;100.00;101234.47;4706117;30;20556;-95